createdAt,value
2023-07-24T00:02:05.243Z,0.20
2023-07-24T00:04:35.721Z,0.20
2023-07-24T00:07:08.886Z,0.30
2023-07-24T00:09:39.162Z,0.20
2023-07-24T00:12:11.406Z,0.20
2023-07-24T00:14:41.723Z,0.30
2023-07-24T00:17:12.043Z,0.20
2023-07-24T00:19:42.290Z,0.30
2023-07-24T00:22:15.206Z,0.20
2023-07-24T00:24:45.500Z,0.20
2023-07-24T00:27:15.815Z,0.20
2023-07-24T00:29:46.250Z,0.20
2023-07-24T00:32:16.564Z,0.20
2023-07-24T00:34:46.830Z,0.20
2023-07-24T00:37:20.148Z,0.20
2023-07-24T00:39:50.426Z,0.20
2023-07-24T00:42:20.702Z,0.38
2023-07-24T00:44:51.254Z,0.20
2023-07-24T00:47:21.800Z,0.32
2023-07-24T00:49:53.613Z,0.43
2023-07-24T00:52:26.752Z,0.30
2023-07-24T00:54:58.351Z,0.20
2023-07-24T00:57:28.720Z,0.20
2023-07-24T00:59:59.594Z,0.30
2023-07-24T01:02:30.368Z,0.20
2023-07-24T01:05:00.960Z,0.30
2023-07-24T01:07:34.297Z,0.20
2023-07-24T01:10:05.019Z,0.28
2023-07-24T01:12:41.076Z,0.20
2023-07-24T01:15:18.335Z,0.20
2023-07-24T01:17:53.544Z,0.28
2023-07-24T01:20:25.131Z,0.20
2023-07-24T01:23:34.121Z,0.50
2023-07-24T01:26:07.153Z,0.20
2023-07-24T01:28:37.466Z,0.30
2023-07-24T01:31:07.819Z,0.25
2023-07-24T01:33:38.539Z,0.30
2023-07-24T01:36:10.171Z,0.20
2023-07-24T01:38:41.511Z,0.20
2023-07-24T01:41:14.567Z,0.20
2023-07-24T01:43:44.807Z,0.38
2023-07-24T01:46:15.246Z,0.20
2023-07-24T01:48:45.534Z,0.20
2023-07-24T01:51:15.848Z,0.30
2023-07-24T01:53:46.107Z,0.20
2023-07-24T01:56:19.042Z,0.30
2023-07-24T01:58:49.285Z,0.20
2023-07-24T02:01:19.595Z,0.43
2023-07-24T02:03:50.010Z,0.20
2023-07-24T02:06:20.393Z,0.20
2023-07-24T02:08:52.560Z,0.20
2023-07-24T02:11:25.498Z,0.28
2023-07-24T02:13:55.794Z,0.30
2023-07-24T02:16:26.195Z,0.30
2023-07-24T02:18:56.536Z,0.28
2023-07-24T02:21:26.886Z,0.28
2023-07-24T02:23:57.195Z,0.30
2023-07-24T02:26:30.315Z,0.25
2023-07-24T02:29:00.710Z,0.38
2023-07-24T02:31:31.140Z,0.30
2023-07-24T02:34:01.458Z,0.50
2023-07-24T02:36:32.039Z,0.50
2023-07-24T02:39:02.506Z,0.50
2023-07-24T02:41:35.391Z,0.40
2023-07-24T02:44:07.559Z,0.50
2023-07-24T02:46:37.963Z,0.45
2023-07-24T02:49:08.880Z,0.55
2023-07-24T02:51:39.147Z,0.70
2023-07-24T02:54:10.224Z,0.75
2023-07-24T02:56:43.256Z,0.73
2023-07-24T02:59:13.619Z,0.90
2023-07-24T03:01:45.877Z,0.80
2023-07-24T03:04:16.125Z,0.98
2023-07-24T03:06:46.418Z,0.82
2023-07-24T03:09:16.716Z,1.15
2023-07-24T03:11:49.601Z,1.30
2023-07-24T03:14:19.897Z,1.10
2023-07-24T03:16:50.226Z,1.10
2023-07-24T03:19:21.714Z,1.20
2023-07-24T03:21:52.027Z,1.23
2023-07-24T03:24:24.140Z,1.33
2023-07-24T03:26:57.112Z,1.20
2023-07-24T03:29:27.556Z,1.23
2023-07-24T03:31:57.973Z,1.30
2023-07-24T03:34:28.287Z,1.30
2023-07-24T03:36:58.558Z,1.42
2023-07-24T03:39:28.937Z,1.58
2023-07-24T03:42:01.844Z,2.10
2023-07-24T03:44:32.165Z,1.77
2023-07-24T03:47:02.482Z,2.03
2023-07-24T03:49:32.806Z,2.05
2023-07-24T03:52:03.107Z,1.83
2023-07-24T03:54:33.374Z,2.40
2023-07-24T03:57:06.638Z,2.22
2023-07-24T03:59:37.106Z,2.30
2023-07-24T04:02:10.629Z,2.20
2023-07-24T04:04:41.317Z,2.65
2023-07-24T04:07:11.631Z,3.00
2023-07-24T04:09:41.868Z,2.40
2023-07-24T04:12:14.928Z,2.13
2023-07-24T04:14:45.191Z,2.58
2023-07-24T04:17:15.512Z,2.40
2023-07-24T04:19:46.806Z,2.20
2023-07-24T04:22:17.104Z,2.60
2023-07-24T04:24:47.420Z,2.42
2023-07-24T04:27:20.339Z,2.95
2023-07-24T04:29:50.686Z,2.90
2023-07-24T04:32:21.137Z,2.72
2023-07-24T04:34:51.450Z,3.10
2023-07-24T04:37:21.751Z,2.88
2023-07-24T04:39:52.024Z,3.20
2023-07-24T04:42:24.980Z,3.17
2023-07-24T04:44:55.273Z,3.10
2023-07-24T04:47:25.592Z,2.85
2023-07-24T04:49:56.569Z,2.67
2023-07-24T04:52:27.007Z,2.95
2023-07-24T04:54:57.264Z,2.25
2023-07-24T04:57:30.122Z,2.40
2023-07-24T05:00:00.431Z,2.15
2023-07-24T05:02:30.751Z,2.03
2023-07-24T05:05:01.049Z,1.88
2023-07-24T05:07:31.339Z,2.17
2023-07-24T05:10:01.920Z,1.80
2023-07-24T05:12:35.073Z,1.77
2023-07-24T05:15:05.369Z,1.80
2023-07-24T05:17:35.660Z,1.58
2023-07-24T05:20:06.330Z,1.60
2023-07-24T05:22:36.662Z,2.10
2023-07-24T05:25:07.929Z,1.50
2023-07-24T05:27:40.835Z,1.73
2023-07-24T05:30:12.605Z,2.00
2023-07-24T05:32:43.032Z,1.88
2023-07-24T05:35:13.348Z,1.60
2023-07-24T05:37:43.649Z,2.00
2023-07-24T05:40:14.197Z,2.58
2023-07-24T05:42:47.373Z,2.10
2023-07-24T05:45:18.136Z,2.30
2023-07-24T05:47:48.632Z,2.13
2023-07-24T05:50:19.181Z,2.10
2023-07-24T05:52:49.733Z,2.10
2023-07-24T05:55:20.261Z,2.20
2023-07-24T05:57:53.150Z,2.00
2023-07-24T06:00:23.703Z,2.28
2023-07-24T06:02:56.381Z,1.90
2023-07-24T06:05:27.704Z,2.50
2023-07-24T06:07:57.987Z,2.17
2023-07-24T06:10:28.357Z,2.22
2023-07-24T06:13:01.263Z,2.38
2023-07-24T06:15:31.519Z,2.10
2023-07-24T06:18:01.938Z,2.20
2023-07-24T06:20:32.276Z,2.35
2023-07-24T06:23:03.826Z,2.50
2023-07-24T06:25:34.472Z,2.53
2023-07-24T06:28:08.006Z,2.70
2023-07-24T06:30:38.320Z,2.83
2023-07-24T06:33:08.731Z,3.13
2023-07-24T06:35:39.274Z,3.13
2023-07-24T06:38:09.736Z,3.50
2023-07-24T06:40:40.180Z,3.08
2023-07-24T06:43:13.178Z,3.35
2023-07-24T06:45:43.541Z,3.47
2023-07-24T06:48:13.850Z,3.75
2023-07-24T06:50:44.139Z,3.58
2023-07-24T06:53:14.453Z,4.07
2023-07-24T06:55:46.068Z,3.80
2023-07-24T06:58:18.983Z,3.80
2023-07-24T07:00:49.223Z,3.75
2023-07-24T07:03:19.566Z,4.22
2023-07-24T07:05:49.878Z,3.97
2023-07-24T07:08:20.188Z,4.10
2023-07-24T07:10:50.492Z,4.45
2023-07-24T07:13:23.462Z,3.90
2023-07-24T07:15:53.817Z,3.72
2023-07-24T07:18:24.239Z,3.75
2023-07-24T07:20:55.927Z,3.65
2023-07-24T07:23:26.389Z,3.80
2023-07-24T07:25:56.666Z,3.80
2023-07-24T07:28:29.620Z,3.38
2023-07-24T07:30:59.931Z,3.25
2023-07-24T07:33:30.749Z,3.83
2023-07-24T07:36:01.084Z,3.15
2023-07-24T07:38:31.532Z,3.20
2023-07-24T07:41:01.883Z,3.30
2023-07-24T07:43:34.804Z,3.15
2023-07-24T07:46:05.120Z,3.20
2023-07-24T07:48:35.542Z,3.47
2023-07-24T07:51:05.841Z,3.00
2023-07-24T07:53:36.172Z,3.35
2023-07-24T07:56:06.485Z,3.00
2023-07-24T07:58:39.356Z,2.92
2023-07-24T08:01:10.133Z,3.03
2023-07-24T08:03:40.521Z,3.33
2023-07-24T08:06:10.890Z,3.45
2023-07-24T08:08:41.180Z,3.00
2023-07-24T08:11:11.511Z,2.63
2023-07-24T08:13:44.429Z,3.42
2023-07-24T08:16:20.124Z,3.20
2023-07-24T08:18:51.369Z,3.03
2023-07-24T08:21:21.912Z,3.40
2023-07-24T08:23:52.220Z,3.20
2023-07-24T08:26:22.468Z,2.88
2023-07-24T08:28:55.359Z,2.60
2023-07-24T08:31:25.719Z,2.90
2023-07-24T08:33:56.193Z,3.00
2023-07-24T08:36:26.708Z,2.92
2023-07-24T08:38:57.135Z,3.13
2023-07-24T08:41:27.421Z,2.88
2023-07-24T08:44:00.353Z,2.67
2023-07-24T08:46:32.192Z,2.40
2023-07-24T08:49:03.194Z,2.42
2023-07-24T08:51:35.040Z,2.67
2023-07-24T08:54:06.377Z,2.15
2023-07-24T08:56:36.827Z,2.50
2023-07-24T08:59:09.822Z,2.13
2023-07-24T09:01:40.605Z,2.13
2023-07-24T09:04:11.014Z,2.10
2023-07-24T09:06:42.807Z,2.20
2023-07-24T09:09:22.165Z,2.20
2023-07-24T09:11:55.155Z,2.00
2023-07-24T09:14:32.865Z,2.08
2023-07-24T09:17:07.898Z,2.20
2023-07-24T09:19:38.740Z,1.70
2023-07-24T09:22:16.338Z,2.05
2023-07-24T09:24:56.087Z,1.90
2023-07-24T09:27:32.951Z,1.85
2023-07-24T09:30:06.111Z,1.70
2023-07-24T09:32:36.561Z,2.05
2023-07-24T09:35:08.280Z,1.58
2023-07-24T09:37:39.465Z,1.98
2023-07-24T09:40:11.263Z,2.10
2023-07-24T09:43:02.134Z,1.75
2023-07-24T09:45:37.500Z,1.40
2023-07-24T09:48:41.017Z,1.70
2023-07-24T09:51:08.843Z,1.63
2023-07-24T09:53:46.167Z,1.77
2023-07-24T09:56:18.963Z,1.95
2023-07-24T09:58:55.645Z,1.40
2023-07-24T10:01:29.727Z,1.90
2023-07-24T10:04:01.252Z,2.50
2023-07-24T10:06:33.663Z,1.70
2023-07-24T10:09:04.859Z,1.88
2023-07-24T10:11:35.366Z,1.70
2023-07-24T10:14:06.318Z,2.10
2023-07-24T10:16:40.173Z,2.22
2023-07-24T10:19:18.907Z,2.38
2023-07-24T10:21:51.347Z,2.30
2023-07-24T10:24:40.103Z,2.30
2023-07-24T10:27:12.457Z,2.42
2023-07-24T10:29:44.049Z,2.50
2023-07-24T10:32:26.587Z,2.40
2023-07-24T10:35:11.083Z,2.33
2023-07-24T10:37:42.373Z,2.30
2023-07-24T10:40:24.748Z,2.53
2023-07-24T10:43:04.247Z,2.35
2023-07-24T10:45:50.065Z,2.05
2023-07-24T10:48:26.165Z,2.00
2023-07-24T10:50:56.815Z,2.40
2023-07-24T10:53:28.270Z,2.30
2023-07-24T10:55:58.773Z,2.40
2023-07-24T10:58:30.167Z,2.00
2023-07-24T11:01:00.494Z,1.60
2023-07-24T11:03:33.401Z,1.80
2023-07-24T11:06:04.038Z,1.75
2023-07-24T11:08:37.624Z,1.80
2023-07-24T11:11:08.043Z,1.88
2023-07-24T11:13:38.739Z,1.73
2023-07-24T11:16:11.126Z,1.60
2023-07-24T11:18:56.805Z,1.52
2023-07-24T11:23:59.819Z,1.58
2023-07-24T11:26:31.033Z,1.40
2023-07-24T11:29:01.344Z,1.70
2023-07-24T11:31:31.748Z,1.33
2023-07-24T11:34:05.045Z,1.70
2023-07-24T11:36:35.540Z,1.33
2023-07-24T11:39:05.940Z,1.55
2023-07-24T11:41:36.224Z,2.33
2023-07-24T11:44:06.750Z,2.20
2023-07-24T11:46:37.115Z,2.20
2023-07-24T11:49:10.667Z,1.95
2023-07-24T11:51:41.788Z,2.03
2023-07-24T11:54:13.626Z,2.30
2023-07-24T11:56:43.982Z,2.05
2023-07-24T11:59:17.191Z,1.73
2023-07-24T12:01:51.144Z,1.73
2023-07-24T12:04:24.599Z,2.00
2023-07-24T12:06:56.074Z,1.90
2023-07-24T12:11:54.043Z,1.95
2023-07-24T12:14:24.818Z,1.58
2023-07-24T12:17:07.604Z,1.83
2023-07-24T12:19:40.713Z,1.60
2023-07-24T12:22:11.296Z,2.13
2023-07-24T12:24:41.640Z,2.00
2023-07-24T12:27:11.939Z,1.90
2023-07-24T12:29:42.210Z,2.03
2023-07-24T12:32:12.612Z,2.08
2023-07-24T12:34:46.461Z,2.20
2023-07-24T12:37:16.872Z,1.75
2023-07-24T12:39:48.099Z,1.55
2023-07-24T12:42:18.576Z,2.20
2023-07-24T12:44:49.107Z,1.80
2023-07-24T12:47:19.555Z,2.10
2023-07-24T12:49:53.867Z,2.22
2023-07-24T12:52:24.181Z,1.80
2023-07-24T12:55:01.639Z,2.28
2023-07-24T12:57:32.983Z,1.60
2023-07-24T13:00:06.295Z,1.95
2023-07-24T13:02:36.633Z,2.55
2023-07-24T13:05:10.122Z,2.30
2023-07-24T13:07:41.036Z,2.10
2023-07-24T13:10:13.475Z,1.70
2023-07-24T13:12:43.801Z,1.80
2023-07-24T13:15:14.198Z,1.85
2023-07-24T13:17:44.551Z,2.00
2023-07-24T13:20:17.847Z,1.70
2023-07-24T13:22:50.069Z,2.10
2023-07-24T13:25:20.490Z,1.77
2023-07-24T13:27:51.702Z,2.05
2023-07-24T13:30:22.074Z,1.83
2023-07-24T13:32:52.642Z,1.75
2023-07-24T13:35:25.678Z,1.67
2023-07-24T13:37:56.170Z,1.75
2023-07-24T13:40:26.560Z,1.70
2023-07-24T13:42:57.369Z,1.85
2023-07-24T13:45:27.648Z,2.10
2023-07-24T13:47:58.010Z,1.58
2023-07-24T13:50:30.887Z,2.10
2023-07-24T13:53:01.192Z,2.00
2023-07-24T13:55:31.562Z,1.65
2023-07-24T13:58:01.877Z,1.63
2023-07-24T14:00:32.283Z,2.08
2023-07-24T14:03:02.788Z,1.70
2023-07-24T14:05:37.900Z,1.80
2023-07-24T14:10:38.626Z,1.73
2023-07-24T14:13:08.923Z,1.45
2023-07-24T14:15:39.400Z,1.83
2023-07-24T14:18:09.704Z,1.70
2023-07-24T14:20:42.675Z,1.52
2023-07-24T14:23:12.999Z,1.83
2023-07-24T14:25:43.284Z,1.73
2023-07-24T14:28:13.592Z,1.90
2023-07-24T14:30:44.211Z,2.88
2023-07-24T14:33:14.598Z,2.20
2023-07-24T14:35:47.499Z,1.77
2023-07-24T14:38:17.816Z,2.00
2023-07-24T14:40:48.068Z,1.70
2023-07-24T14:43:18.444Z,1.73
2023-07-24T14:45:49.365Z,1.52
2023-07-24T14:48:19.638Z,1.50
2023-07-24T14:50:52.520Z,1.42
2023-07-24T14:53:22.787Z,1.30
2023-07-24T14:55:53.187Z,1.10
2023-07-24T14:58:23.563Z,1.38
2023-07-24T15:00:53.926Z,1.40
2023-07-24T15:03:24.336Z,1.42
2023-07-24T15:05:57.664Z,1.20
2023-07-24T15:08:28.060Z,1.35
2023-07-24T15:10:58.350Z,1.70
2023-07-24T15:13:28.652Z,1.35
2023-07-24T15:15:58.965Z,0.98
2023-07-24T15:18:29.296Z,1.17
2023-07-24T15:21:02.348Z,1.42
2023-07-24T15:23:32.648Z,1.85
2023-07-24T15:26:03.140Z,1.25
2023-07-24T15:28:33.458Z,1.40
2023-07-24T15:31:03.932Z,1.50
2023-07-24T15:33:34.308Z,1.30
2023-07-24T15:36:07.717Z,1.20
2023-07-24T15:38:38.103Z,1.30
2023-07-24T15:41:08.430Z,1.70
2023-07-24T15:43:38.743Z,1.40
2023-07-24T15:46:09.148Z,1.27
2023-07-24T15:48:39.544Z,1.58
2023-07-24T15:51:12.540Z,1.80
2023-07-24T15:53:42.872Z,1.73
2023-07-24T15:56:13.284Z,1.40
2023-07-24T15:58:44.487Z,1.40
2023-07-24T16:01:14.828Z,1.52
2023-07-24T16:03:45.671Z,1.70
2023-07-24T16:06:19.086Z,1.58
2023-07-24T16:08:49.403Z,1.10
2023-07-24T16:11:19.748Z,1.45
2023-07-24T16:13:50.083Z,1.27
2023-07-24T16:16:20.353Z,1.40
2023-07-24T16:18:50.610Z,1.55
2023-07-24T16:21:26.696Z,1.63
2023-07-24T16:23:56.962Z,1.58
2023-07-24T16:26:27.474Z,1.70
2023-07-24T16:28:57.768Z,1.60
2023-07-24T16:31:35.294Z,1.60
2023-07-24T16:34:06.597Z,1.50
2023-07-24T16:36:39.576Z,1.58
2023-07-24T16:39:09.993Z,1.60
2023-07-24T16:41:40.248Z,1.40
2023-07-24T16:44:15.087Z,1.63
2023-07-24T16:46:46.009Z,2.00
2023-07-24T16:49:16.291Z,1.55
2023-07-24T16:51:49.386Z,1.70
2023-07-24T16:54:19.665Z,1.60
2023-07-24T16:56:49.956Z,1.80
2023-07-24T16:59:20.261Z,1.55
2023-07-24T17:01:50.531Z,1.67
2023-07-24T17:04:20.850Z,1.55
2023-07-24T17:06:53.804Z,1.63
2023-07-24T17:09:24.208Z,1.30
2023-07-24T17:11:54.487Z,1.40
2023-07-24T17:14:24.792Z,1.40
2023-07-24T17:16:55.084Z,1.83
2023-07-24T17:19:25.432Z,1.63
2023-07-24T17:21:58.274Z,1.60
2023-07-24T17:24:28.667Z,1.50
2023-07-24T17:26:59.093Z,1.73
2023-07-24T17:29:29.352Z,1.92
2023-07-24T17:32:00.164Z,1.63
2023-07-24T17:34:30.455Z,1.42
2023-07-24T17:37:03.330Z,1.60
2023-07-24T17:39:33.601Z,1.60
2023-07-24T17:42:03.852Z,1.83
2023-07-24T17:44:34.175Z,1.88
2023-07-24T17:47:04.402Z,1.67
2023-07-24T17:49:34.771Z,1.55
2023-07-24T17:52:09.978Z,1.90
2023-07-24T17:57:11.022Z,2.15
2023-07-24T17:59:41.425Z,1.70
2023-07-24T18:02:11.759Z,1.55
2023-07-24T18:04:42.148Z,1.50
2023-07-24T18:07:15.093Z,1.80
2023-07-24T18:09:45.376Z,1.40
2023-07-24T18:12:16.192Z,1.55
2023-07-24T18:14:46.466Z,1.63
2023-07-24T18:17:16.740Z,1.70
2023-07-24T18:19:48.256Z,1.70
2023-07-24T18:22:22.458Z,1.45
2023-07-24T18:24:52.934Z,1.60
2023-07-24T18:27:23.252Z,1.60
2023-07-24T18:29:54.131Z,1.58
2023-07-24T18:32:25.710Z,1.58
2023-07-24T18:34:56.405Z,1.63
2023-07-24T18:37:29.296Z,1.70
2023-07-24T18:39:59.596Z,1.40
2023-07-24T18:42:29.857Z,1.55
2023-07-24T18:45:00.159Z,1.55
2023-07-24T18:47:31.685Z,1.48
2023-07-24T18:50:02.009Z,1.50
2023-07-24T18:52:34.891Z,1.60
2023-07-24T18:55:05.258Z,1.50
2023-07-24T18:57:35.917Z,1.70
2023-07-24T19:00:06.380Z,1.77
2023-07-24T19:02:36.672Z,1.45
2023-07-24T19:05:07.467Z,1.23
2023-07-24T19:07:40.452Z,1.50
2023-07-24T19:10:13.690Z,1.33
2023-07-24T19:12:44.484Z,1.38
2023-07-24T19:15:15.785Z,1.85
2023-07-24T19:17:46.066Z,1.92
2023-07-24T19:20:18.121Z,1.80
2023-07-24T19:22:50.973Z,1.67
2023-07-24T19:25:21.551Z,1.77
2023-07-24T19:27:51.929Z,1.50
2023-07-24T19:30:22.275Z,1.52
2023-07-24T19:32:52.604Z,1.50
2023-07-24T19:35:23.210Z,1.90
2023-07-24T19:37:56.103Z,1.60
2023-07-24T19:40:26.428Z,1.50
2023-07-24T19:42:56.736Z,1.40
2023-07-24T19:45:27.767Z,1.15
2023-07-24T19:47:58.309Z,1.30
2023-07-24T19:50:28.707Z,1.33
2023-07-24T19:53:01.587Z,1.30
2023-07-24T19:55:31.927Z,1.50
2023-07-24T19:58:02.208Z,1.30
2023-07-24T20:00:33.461Z,1.20
2023-07-24T20:03:04.025Z,1.38
2023-07-24T20:05:34.471Z,1.45
2023-07-24T20:08:07.989Z,1.50
2023-07-24T20:10:38.361Z,1.20
2023-07-24T20:13:08.619Z,1.25
2023-07-24T20:15:38.886Z,1.20
2023-07-24T20:18:09.261Z,1.30
2023-07-24T20:20:39.833Z,1.38
2023-07-24T20:23:12.781Z,1.17
2023-07-24T20:25:43.672Z,1.42
2023-07-24T20:28:14.008Z,1.40
2023-07-24T20:30:47.296Z,1.20
2023-07-24T20:33:19.250Z,1.35
2023-07-24T20:35:49.668Z,1.30
2023-07-24T20:38:32.620Z,1.30
2023-07-24T20:41:03.091Z,1.27
2023-07-24T20:43:33.715Z,1.30
2023-07-24T20:46:14.623Z,1.48
2023-07-24T20:48:45.350Z,1.48
2023-07-24T20:51:21.485Z,1.50
2023-07-24T20:53:59.684Z,1.48
2023-07-24T20:56:30.265Z,1.60
2023-07-24T20:59:00.589Z,1.60
2023-07-24T21:01:31.126Z,1.40
2023-07-24T21:04:01.724Z,1.40
2023-07-24T21:06:32.081Z,1.52
2023-07-24T21:09:05.098Z,1.42
2023-07-24T21:11:36.077Z,1.90
2023-07-24T21:14:06.429Z,1.90
2023-07-24T21:16:36.795Z,1.70
2023-07-24T21:19:07.060Z,1.75
2023-07-24T21:21:41.978Z,1.85
2023-07-24T21:24:19.291Z,1.50
2023-07-24T21:26:53.626Z,1.73
2023-07-24T21:29:27.176Z,1.60
2023-07-24T21:31:59.978Z,1.60
2023-07-24T21:34:34.962Z,1.70
2023-07-24T21:37:10.689Z,1.58
2023-07-24T21:39:46.871Z,1.40
2023-07-24T21:42:19.167Z,1.63
2023-07-24T21:44:52.885Z,1.38
2023-07-24T21:47:28.465Z,1.77
2023-07-24T21:50:00.576Z,1.73
2023-07-24T21:52:34.174Z,1.67
2023-07-24T21:55:10.957Z,1.90
2023-07-24T21:57:44.727Z,1.73
2023-07-24T22:00:19.673Z,1.90
2023-07-24T22:02:53.817Z,1.65
2023-07-24T22:05:27.411Z,1.95
2023-07-24T22:08:01.277Z,1.80
2023-07-24T22:10:38.517Z,1.70
2023-07-24T22:13:13.363Z,1.80
2023-07-24T22:15:47.552Z,2.03
2023-07-24T22:18:22.129Z,1.70
2023-07-24T22:20:56.162Z,2.05
2023-07-24T22:23:30.380Z,2.20
2023-07-24T22:26:04.568Z,1.92
2023-07-24T22:28:34.872Z,2.50
2023-07-24T22:31:12.136Z,2.13
2023-07-24T22:33:42.456Z,1.98
2023-07-24T22:36:12.973Z,1.90
2023-07-24T22:38:43.292Z,2.22
2023-07-24T22:41:17.153Z,1.98
2023-07-24T22:43:47.428Z,2.10
2023-07-24T22:46:17.734Z,1.98
2023-07-24T22:48:48.085Z,2.05
2023-07-24T22:51:18.447Z,2.50
2023-07-24T22:53:48.859Z,2.15
2023-07-24T22:56:21.794Z,2.53
2023-07-24T22:59:24.888Z,1.88
2023-07-24T23:01:57.329Z,2.35
2023-07-24T23:04:29.251Z,2.42
2023-07-24T23:07:01.009Z,2.00
2023-07-24T23:09:31.461Z,2.28
2023-07-24T23:12:04.339Z,2.50
2023-07-24T23:14:34.662Z,2.50
2023-07-24T23:17:05.029Z,2.45
2023-07-24T23:19:35.416Z,3.03
2023-07-24T23:22:05.726Z,2.53
2023-07-24T23:24:36.639Z,2.42
2023-07-24T23:27:09.866Z,2.80
2023-07-24T23:29:40.193Z,2.55
2023-07-24T23:32:12.488Z,2.80
2023-07-24T23:34:42.753Z,2.20
2023-07-24T23:37:13.056Z,2.80
2023-07-24T23:39:43.384Z,2.60
2023-07-24T23:42:16.293Z,2.50
2023-07-24T23:44:46.563Z,2.35
2023-07-24T23:47:18.159Z,2.65
2023-07-24T23:49:48.767Z,2.80
2023-07-24T23:52:19.024Z,2.97
2023-07-24T23:54:49.559Z,2.45
2023-07-24T23:57:22.476Z,2.30
2023-07-24T23:59:52.828Z,2.83
